Time;durP1;ratioP1;P1;durP2;ratioP2;P2;SDS_P1;SDS_P2;PMS_P1;PMS_P2;Temp;Humidity;BMP_temperature;BMP_pressure;BME280_temperature;BME280_humidity;BME280_pressure;Samples;Min_cycle;Max_cycle;Signal;HPM_P1;HPM_P2
2023/08/29 00:00:09;;;;;;;0.40;0.40;;;;;;;23.05;51.83;100138.81;4567889;27;20064;-69
2023/08/29 00:02:31;;;;;;;0.50;0.50;;;;;;;23.06;51.94;100133.88;4567825;27;20048;-67
2023/08/29 00:04:41;;;;;;;0.57;0.57;;;;;;;22.95;51.77;100113.63;4558848;28;20682;-67
2023/08/29 00:06:52;;;;;;;0.60;0.50;;;;;;;23.07;51.78;100129.78;4567968;27;20090;-67
2023/08/29 00:09:03;;;;;;;0.50;0.50;;;;;;;23.03;51.96;100126.84;4566318;27;20032;-67
2023/08/29 00:11:14;;;;;;;0.50;0.50;;;;;;;23.04;51.94;100127.69;4569126;27;20044;-67
2023/08/29 00:13:25;;;;;;;0.50;0.50;;;;;;;23.05;52.03;100135.09;4567872;27;20130;-67
2023/08/29 00:15:35;;;;;;;0.90;0.50;;;;;;;23.05;51.64;100121.53;4566258;27;20036;-67
2023/08/29 00:17:45;;;;;;;0.52;0.40;;;;;;;23.03;52.14;100120.25;4566566;27;20083;-67
2023/08/29 00:19:56;;;;;;;0.40;0.40;;;;;;;23.05;51.71;100123.59;4552009;28;20041;-67
2023/08/29 00:22:06;;;;;;;0.73;0.40;;;;;;;23.04;51.73;100121.94;4568252;27;20167;-67
2023/08/29 00:24:17;;;;;;;0.40;0.40;;;;;;;23.01;51.99;100114.06;4558873;27;20816;-66
2023/08/29 00:26:27;;;;;;;0.85;0.57;;;;;;;23.00;52.07;100119.03;4567281;27;20044;-67
2023/08/29 00:28:38;;;;;;;0.50;0.50;;;;;;;23.02;51.83;100115.75;4553146;28;20071;-67
2023/08/29 00:30:48;;;;;;;0.55;0.52;;;;;;;23.01;51.84;100122.69;4552170;27;20036;-67
2023/08/29 00:32:59;;;;;;;1.15;0.50;;;;;;;23.03;52.11;100123.97;4565617;27;20059;-67
2023/08/29 00:35:09;;;;;;;0.50;0.50;;;;;;;23.02;51.99;100128.09;4558463;28;20032;-67
2023/08/29 00:37:20;;;;;;;0.43;0.43;;;;;;;23.02;51.95;100130.97;4558616;28;20131;-67
2023/08/29 00:39:31;;;;;;;0.60;0.60;;;;;;;23.03;52.02;100131.78;4551353;28;20033;-67
2023/08/29 00:41:41;;;;;;;1.08;0.65;;;;;;;22.97;51.60;100116.09;4567276;27;20040;-67
2023/08/29 00:43:51;;;;;;;0.65;0.65;;;;;;;23.04;51.82;100127.69;4567440;27;20075;-67
2023/08/29 00:46:04;;;;;;;1.38;0.60;;;;;;;22.98;51.60;100124.34;4568649;27;20038;-67
2023/08/29 00:48:14;;;;;;;0.63;0.50;;;;;;;23.01;51.40;100126.41;4567309;27;20032;-67
2023/08/29 00:50:25;;;;;;;0.60;0.60;;;;;;;22.99;51.45;100119.41;4566740;27;20040;-67
2023/08/29 00:52:36;;;;;;;0.75;0.65;;;;;;;22.91;51.27;100106.16;4567097;27;20099;-67
2023/08/29 00:54:46;;;;;;;0.65;0.65;;;;;;;23.03;51.48;100128.91;4566686;27;20038;-67
2023/08/29 00:56:57;;;;;;;0.60;0.60;;;;;;;22.97;51.77;100121.84;4567281;27;20093;-67
2023/08/29 00:59:07;;;;;;;0.70;0.70;;;;;;;23.01;51.41;100129.28;4550705;28;20033;-67
2023/08/29 01:01:19;;;;;;;0.60;0.60;;;;;;;23.02;51.53;100136.72;4551712;28;20115;-67
2023/08/29 01:03:30;;;;;;;0.70;0.70;;;;;;;22.98;51.68;100140.75;4566927;27;20071;-67
2023/08/29 01:05:40;;;;;;;0.70;0.70;;;;;;;22.96;51.71;100138.28;4550408;28;20066;-67
2023/08/29 01:07:53;;;;;;;0.60;0.60;;;;;;;22.99;51.63;100146.13;4566402;27;20497;-67
2023/08/29 01:10:05;;;;;;;0.70;0.60;;;;;;;22.99;51.92;100149.00;4568120;27;20029;-67
2023/08/29 01:12:17;;;;;;;0.60;0.60;;;;;;;23.01;51.99;100146.56;4566609;27;20554;-67
2023/08/29 01:14:46;;;;;;;0.70;0.70;;;;;;;23.01;51.85;100157.25;4566825;27;20106;-66
2023/08/29 01:17:20;;;;;;;1.30;0.70;;;;;;;23.00;51.77;100152.72;4559018;28;20899;-67
2023/08/29 01:19:34;;;;;;;0.70;0.60;;;;;;;22.96;51.80;100151.88;4542115;28;21280;-67
2023/08/29 01:22:17;;;;;;;0.60;0.60;;;;;;;23.00;51.66;100158.47;4566429;27;20043;-67
2023/08/29 01:24:40;;;;;;;0.60;0.60;;;;;;;23.00;51.79;100164.22;4557247;27;20044;-67
2023/08/29 01:26:52;;;;;;;0.95;0.60;;;;;;;22.97;51.45;100156.38;4567183;27;20780;-68
2023/08/29 01:29:04;;;;;;;0.70;0.70;;;;;;;23.00;51.45;100170.00;4570983;27;20040;-67
2023/08/29 01:31:15;;;;;;;1.60;0.80;;;;;;;22.99;51.82;100172.03;4554979;28;20045;-67
2023/08/29 01:33:27;;;;;;;0.60;0.60;;;;;;;22.97;51.14;100180.25;4570484;27;20036;-67
2023/08/29 01:35:47;;;;;;;0.80;0.80;;;;;;;22.98;50.97;100187.66;4569863;27;20115;-67
2023/08/29 01:37:58;;;;;;;0.60;0.60;;;;;;;22.91;51.06;100170.28;4569050;27;20044;-67
2023/08/29 01:40:09;;;;;;;1.63;0.88;;;;;;;22.97;51.34;100180.25;4568418;27;20051;-67
2023/08/29 01:42:19;;;;;;;0.75;0.60;;;;;;;22.98;51.14;100181.06;4567458;27;20068;-67
2023/08/29 01:44:30;;;;;;;0.65;0.65;;;;;;;22.96;51.22;100175.69;4555426;28;20057;-67
2023/08/29 01:46:40;;;;;;;0.70;0.70;;;;;;;22.94;51.17;100181.03;4550272;28;20527;-67
2023/08/29 01:48:51;;;;;;;1.05;0.80;;;;;;;22.93;51.60;100178.56;4556006;28;20040;-67
2023/08/29 01:51:02;;;;;;;0.70;0.70;;;;;;;22.94;51.17;100175.28;4557200;28;20131;-67
2023/08/29 01:53:13;;;;;;;0.70;0.70;;;;;;;22.96;51.49;100184.34;4554207;28;20167;-67
2023/08/29 01:55:25;;;;;;;1.00;0.98;;;;;;;22.95;51.08;100181.84;4569973;27;20028;-67
2023/08/29 01:57:38;;;;;;;0.68;0.65;;;;;;;22.91;51.29;100170.28;4554110;28;20036;-67
2023/08/29 01:59:50;;;;;;;0.90;0.90;;;;;;;22.96;51.18;100189.28;4559648;28;20954;-67
2023/08/29 02:02:02;;;;;;;0.80;0.80;;;;;;;22.95;51.02;100178.97;4567342;27;20032;-67
2023/08/29 02:04:12;;;;;;;1.50;0.80;;;;;;;22.92;51.18;100174.00;4568268;27;20834;-67
2023/08/29 02:06:23;;;;;;;0.70;0.70;;;;;;;22.96;51.23;100177.78;4550375;28;20091;-67
2023/08/29 02:08:33;;;;;;;0.65;0.60;;;;;;;22.95;51.14;100176.09;4537722;28;20041;-67
2023/08/29 02:10:44;;;;;;;0.95;0.80;;;;;;;22.94;51.33;100175.28;4554204;27;20490;-67
2023/08/29 02:12:54;;;;;;;0.80;0.80;;;;;;;22.95;51.09;100176.94;4554345;28;20191;-67
2023/08/29 02:15:06;;;;;;;0.80;0.80;;;;;;;22.90;50.59;100164.94;4554870;28;20060;-68
2023/08/29 02:17:16;;;;;;;0.70;0.70;;;;;;;;;;4554406;28;20037;-67
2023/08/29 02:19:28;;;;;;;1.10;1.00;;;;;;;22.89;51.20;100160.41;4554631;28;20037;-68
2023/08/29 02:21:39;;;;;;;1.00;0.82;;;;;;;22.89;50.90;100157.53;4571034;27;20031;-67
2023/08/29 02:23:49;;;;;;;1.33;0.85;;;;;;;22.93;51.24;100164.16;4570021;27;20036;-67
2023/08/29 02:26:04;;;;;;;0.70;0.70;;;;;;;22.93;51.00;100161.28;4569497;27;20696;-67
2023/08/29 02:28:14;;;;;;;0.80;0.80;;;;;;;22.93;50.95;100162.09;4568409;27;20032;-67
2023/08/29 02:30:25;;;;;;;0.68;0.60;;;;;;;22.93;50.94;100169.94;4560961;28;20060;-68
2023/08/29 02:32:35;;;;;;;0.80;0.80;;;;;;;22.94;51.16;100168.69;4569152;27;20037;-67
2023/08/29 02:34:46;;;;;;;0.80;0.80;;;;;;;22.89;50.81;100160.41;4568937;27;20093;-67
2023/08/29 02:36:56;;;;;;;0.88;0.80;;;;;;;22.89;50.84;100160.41;4568699;27;20036;-67
2023/08/29 02:39:07;;;;;;;1.40;0.90;;;;;;;22.91;50.69;100163.72;4540773;27;20025;-67
2023/08/29 02:41:17;;;;;;;0.80;0.80;;;;;;;22.90;50.93;100157.13;4560904;28;20043;-67
2023/08/29 02:43:28;;;;;;;1.23;0.70;;;;;;;22.92;51.04;100156.75;4555323;28;20040;-67
2023/08/29 02:45:39;;;;;;;0.85;0.80;;;;;;;22.91;50.78;100163.72;4559871;28;20401;-67
2023/08/29 02:47:49;;;;;;;0.70;0.70;;;;;;;22.86;51.00;100159.16;4551494;27;20068;-67
2023/08/29 02:50:01;;;;;;;0.77;0.77;;;;;;;22.92;51.18;100160.47;4568256;27;20068;-67
2023/08/29 02:52:11;;;;;;;1.00;0.93;;;;;;;;;;4568690;27;20027;-67
2023/08/29 02:54:22;;;;;;;0.93;0.82;;;;;;;22.89;50.84;100157.53;4568580;27;20489;-67
2023/08/29 02:56:32;;;;;;;0.70;0.70;;;;;;;;;;4555944;28;20079;-67
2023/08/29 02:58:43;;;;;;;1.10;0.77;;;;;;;22.91;51.02;100169.47;4568281;27;20028;-67
2023/08/29 03:00:59;;;;;;;0.95;0.90;;;;;;;22.90;50.75;100168.66;4569653;27;20040;-67
2023/08/29 03:03:10;;;;;;;1.17;0.80;;;;;;;22.87;50.96;100160.81;4549283;28;20681;-67
2023/08/29 03:05:21;;;;;;;0.90;0.90;;;;;;;22.89;50.57;100160.41;4553014;28;20040;-67
2023/08/29 03:07:32;;;;;;;1.33;0.93;;;;;;;22.88;50.88;100165.31;4568319;27;20089;-67
2023/08/29 03:09:42;;;;;;;0.90;0.80;;;;;;;22.89;50.82;100166.16;4557702;28;20041;-67
2023/08/29 03:11:53;;;;;;;0.70;0.70;;;;;;;22.85;50.63;100157.47;4559485;27;20097;-67
2023/08/29 03:14:03;;;;;;;1.00;0.90;;;;;;;22.86;50.97;100164.91;4568895;27;20028;-67
2023/08/29 03:16:14;;;;;;;0.80;0.80;;;;;;;;;;4559181;28;20076;-67
2023/08/29 03:18:27;;;;;;;0.80;0.80;;;;;;;22.88;50.59;100164.53;4552268;28;20036;-67
2023/08/29 03:20:44;;;;;;;0.80;0.80;;;;;;;22.88;50.68;100158.75;4567339;27;20032;-67
2023/08/29 03:22:54;;;;;;;0.77;0.73;;;;;;;22.85;50.62;100148.84;4568158;27;20827;-67
2023/08/29 03:25:07;;;;;;;0.98;0.75;;;;;;;22.85;50.66;100133.66;4566113;27;20176;-68
2023/08/29 03:27:18;;;;;;;0.70;0.70;;;;;;;22.88;51.01;100138.63;4552651;28;20103;-67
2023/08/29 03:29:28;;;;;;;0.70;0.70;;;;;;;22.85;50.82;100125.03;4568769;27;20121;-67
2023/08/29 03:31:39;;;;;;;0.73;0.73;;;;;;;22.83;50.84;100116.78;4555770;28;20086;-67
2023/08/29 03:33:49;;;;;;;0.80;0.73;;;;;;;22.81;50.25;100115.50;4536662;28;20096;-67
2023/08/29 03:36:01;;;;;;;0.60;0.60;;;;;;;22.85;50.54;100114.31;4559498;27;20028;-67
2023/08/29 03:38:11;;;;;;;0.80;0.80;;;;;;;22.86;50.60;100121.75;4559343;28;21168;-67
2023/08/29 03:40:23;;;;;;;0.80;0.80;;;;;;;22.85;50.48;100116.38;4551998;28;20029;-67
2023/08/29 03:42:34;;;;;;;0.93;0.90;;;;;;;22.84;50.40;100106.91;4553567;27;20037;-67
2023/08/29 03:44:44;;;;;;;0.80;0.80;;;;;;;22.82;50.17;100094.13;4552397;28;20435;-67
2023/08/29 03:46:54;;;;;;;0.90;0.90;;;;;;;22.85;50.52;100099.94;4556656;28;20028;-67
2023/08/29 03:49:05;;;;;;;1.13;0.73;;;;;;;22.81;50.08;100093.31;4567162;27;20090;-67
2023/08/29 03:51:15;;;;;;;0.70;0.70;;;;;;;22.82;50.30;100094.97;4552794;28;20067;-67
2023/08/29 03:53:26;;;;;;;0.70;0.70;;;;;;;22.83;49.98;100098.69;4553391;28;20043;-67
2023/08/29 03:55:36;;;;;;;0.90;0.90;;;;;;;22.84;50.36;100106.06;4535357;28;21025;-67
2023/08/29 03:57:46;;;;;;;1.38;0.80;;;;;;;22.81;50.53;100101.94;4550771;28;20072;-67
2023/08/29 03:59:58;;;;;;;0.70;0.70;;;;;;;22.80;50.12;100102.34;4567439;27;20247;-67
2023/08/29 04:02:08;;;;;;;1.33;0.85;;;;;;;22.83;50.10;100111.03;4567880;27;20033;-67
2023/08/29 04:04:19;;;;;;;1.00;0.90;;;;;;;22.80;50.03;100105.22;4567328;27;20036;-67
2023/08/29 04:06:34;;;;;;;0.80;0.80;;;;;;;22.80;50.23;100099.47;4560643;28;20624;-67
2023/08/29 04:08:44;;;;;;;0.77;0.77;;;;;;;22.71;50.51;100081.69;4557392;28;20024;-67
2023/08/29 04:10:55;;;;;;;0.95;0.90;;;;;;;22.79;50.28;100092.03;4558937;28;20033;-67
2023/08/29 04:13:06;;;;;;;0.70;0.70;;;;;;;22.83;50.06;100092.91;4554185;27;20044;-70
2023/08/29 04:15:17;;;;;;;0.80;0.80;;;;;;;22.82;49.97;100089.22;4566977;27;20052;-67
2023/08/29 04:17:28;;;;;;;0.75;0.75;;;;;;;22.81;49.82;100081.81;4550182;28;20037;-66
2023/08/29 04:19:39;;;;;;;1.05;0.70;;;;;;;22.72;50.07;100071.84;4555336;28;20027;-67
2023/08/29 04:21:49;;;;;;;2.22;0.77;;;;;;;22.77;50.17;100072.28;4557592;28;20035;-67
2023/08/29 04:23:59;;;;;;;1.05;0.70;;;;;;;22.81;49.94;100081.81;4552307;28;20037;-67
2023/08/29 04:26:10;;;;;;;0.60;0.60;;;;;;;22.83;50.33;100081.41;4567236;27;20028;-67
2023/08/29 04:28:21;;;;;;;0.80;0.80;;;;;;;22.78;50.22;100073.97;4552606;28;20037;-67
2023/08/29 04:30:31;;;;;;;0.60;0.60;;;;;;;22.78;49.93;100084.63;4567478;27;20103;-67
2023/08/29 04:32:41;;;;;;;0.68;0.68;;;;;;;22.79;49.93;100086.28;4549391;28;20472;-67
2023/08/29 04:34:52;;;;;;;0.93;0.90;;;;;;;22.80;49.68;100093.72;4552369;28;20501;-67
2023/08/29 04:37:04;;;;;;;0.77;0.70;;;;;;;22.80;50.26;100087.97;4541632;27;20568;-67
2023/08/29 04:39:14;;;;;;;0.90;0.90;;;;;;;22.82;49.85;100099.88;4548494;28;20112;-67
2023/08/29 04:41:25;;;;;;;0.80;0.80;;;;;;;22.81;49.83;100101.13;4553304;28;20029;-67
2023/08/29 04:43:35;;;;;;;1.13;0.77;;;;;;;22.77;49.72;100092.44;4567575;27;20036;-67
2023/08/29 04:45:46;;;;;;;0.70;0.70;;;;;;;22.80;50.42;100102.34;4556635;28;20056;-67
2023/08/29 04:47:57;;;;;;;0.88;0.88;;;;;;;22.79;49.86;100095.75;4550988;28;20852;-67
2023/08/29 04:50:10;;;;;;;0.80;0.80;;;;;;;22.80;50.13;100096.59;4569037;27;20063;-67
2023/08/29 04:52:20;;;;;;;1.02;0.80;;;;;;;22.76;50.11;100092.84;4554559;28;20052;-67
2023/08/29 04:54:31;;;;;;;1.38;0.80;;;;;;;22.77;50.13;100097.38;4568267;27;20036;-66
2023/08/29 04:56:41;;;;;;;0.70;0.70;;;;;;;22.80;49.69;100105.22;4565053;28;20131;-67
2023/08/29 04:58:52;;;;;;;1.00;0.70;;;;;;;22.76;49.67;100092.84;4557973;28;20035;-67
2023/08/29 05:01:03;;;;;;;1.52;0.80;;;;;;;22.81;49.96;100104.00;4553494;28;20024;-69
2023/08/29 05:03:14;;;;;;;0.70;0.70;;;;;;;22.79;49.82;100110.13;4551883;28;20612;-67
2023/08/29 05:05:25;;;;;;;1.48;0.70;;;;;;;22.80;50.04;100105.22;4558150;28;20036;-67
2023/08/29 05:07:36;;;;;;;1.05;0.80;;;;;;;22.80;49.72;100110.97;4552406;28;20389;-67
2023/08/29 05:09:46;;;;;;;0.93;0.80;;;;;;;22.75;50.04;100096.94;4558192;27;20037;-67
2023/08/29 05:11:57;;;;;;;0.98;0.90;;;;;;;22.79;49.80;100097.78;4566878;27;20930;-67
2023/08/29 05:14:07;;;;;;;0.80;0.70;;;;;;;22.77;49.82;100094.50;4560543;27;20799;-67
2023/08/29 05:16:18;;;;;;;0.77;0.77;;;;;;;22.80;49.95;100108.91;4542412;28;20516;-67
2023/08/29 05:18:28;;;;;;;0.60;0.60;;;;;;;22.77;50.25;100095.31;4553145;28;20036;-67
2023/08/29 05:20:42;;;;;;;0.80;0.80;;;;;;;22.76;50.27;100099.44;4551762;28;20033;-67
2023/08/29 05:22:53;;;;;;;0.98;0.90;;;;;;;22.78;49.56;100104.78;4558523;28;20143;-67
2023/08/29 05:25:04;;;;;;;2.28;0.90;;;;;;;22.76;49.74;100099.44;4567566;27;20028;-68
2023/08/29 05:27:15;;;;;;;1.10;0.77;;;;;;;22.75;49.92;100102.69;4566877;27;20029;-67
2023/08/29 05:29:25;;;;;;;1.00;0.90;;;;;;;22.76;50.15;100104.34;4533038;28;20061;-67
2023/08/29 05:31:36;;;;;;;0.98;0.90;;;;;;;22.77;50.22;100103.94;4567579;27;20127;-67
2023/08/29 05:33:46;;;;;;;1.25;0.80;;;;;;;22.72;50.40;100092.78;4567250;27;20094;-67
2023/08/29 05:35:57;;;;;;;1.08;0.90;;;;;;;22.77;50.14;100103.13;4566472;27;20080;-67
2023/08/29 05:38:08;;;;;;;0.80;0.80;;;;;;;22.71;49.86;100096.91;4566397;27;20036;-67
2023/08/29 05:40:19;;;;;;;0.80;0.80;;;;;;;22.76;49.82;100104.34;4552864;28;20029;-67
2023/08/29 05:42:29;;;;;;;1.27;1.17;;;;;;;22.76;50.19;100095.72;4565730;27;20032;-67
2023/08/29 05:44:40;;;;;;;1.45;1.05;;;;;;;22.76;49.91;100101.47;4565964;27;20032;-67
2023/08/29 05:46:50;;;;;;;1.30;1.20;;;;;;;22.77;50.13;100097.38;4567900;27;20051;-67
2023/08/29 05:49:01;;;;;;;1.40;1.08;;;;;;;22.77;50.15;100100.25;4568308;27;20317;-67
2023/08/29 05:51:11;;;;;;;1.20;1.10;;;;;;;22.73;50.04;100099.38;4550516;27;20035;-67
2023/08/29 05:53:21;;;;;;;1.23;1.05;;;;;;;22.76;50.12;100104.34;4565605;27;20388;-67
2023/08/29 05:55:32;;;;;;;1.10;1.00;;;;;;;22.75;50.50;100108.44;4567586;27;20037;-67
2023/08/29 05:57:43;;;;;;;1.30;1.20;;;;;;;22.75;50.27;100109.28;4567513;27;20052;-67
2023/08/29 05:59:53;;;;;;;1.30;1.20;;;;;;;22.73;50.56;100110.88;4550205;28;20033;-67
2023/08/29 06:02:05;;;;;;;1.30;1.20;;;;;;;22.74;50.45;100109.69;4566485;27;20068;-67
2023/08/29 06:04:16;;;;;;;1.40;1.30;;;;;;;22.76;50.59;100115.84;4567437;27;20040;-67
2023/08/29 06:06:26;;;;;;;2.53;1.67;;;;;;;22.74;50.29;100116.25;4566169;27;20025;-67
2023/08/29 06:08:37;;;;;;;1.50;1.40;;;;;;;22.75;50.24;100115.03;4534652;28;20037;-67
2023/08/29 06:10:47;;;;;;;1.48;1.38;;;;;;;22.74;49.91;100112.56;4564533;27;20100;-67
2023/08/29 06:12:58;;;;;;;1.52;1.42;;;;;;;22.74;50.46;100107.63;4566763;27;20028;-67
2023/08/29 06:15:08;;;;;;;1.88;1.58;;;;;;;22.73;50.31;100108.84;4552164;27;20109;-67
2023/08/29 06:17:19;;;;;;;1.60;1.50;;;;;;;22.73;49.86;100116.63;4569794;27;20051;-67
2023/08/29 06:19:29;;;;;;;1.60;1.50;;;;;;;22.74;50.38;100112.56;4554705;28;20045;-67
2023/08/29 06:21:40;;;;;;;2.70;1.90;;;;;;;22.70;50.71;100109.63;4568759;27;20033;-67
2023/08/29 06:23:50;;;;;;;1.52;1.42;;;;;;;22.74;50.22;100118.31;4554916;28;20060;-67
2023/08/29 06:26:02;;;;;;;1.67;1.38;;;;;;;22.72;50.89;100109.25;4569889;27;20033;-67
2023/08/29 06:28:13;;;;;;;1.42;1.30;;;;;;;22.73;50.79;100116.63;4569139;27;20043;-67
2023/08/29 06:30:23;;;;;;;1.42;1.30;;;;;;;22.74;51.10;100112.56;4569085;27;20483;-67
2023/08/29 06:32:34;;;;;;;1.60;1.50;;;;;;;22.70;50.92;100108.81;4569610;27;20035;-67
2023/08/29 06:34:45;;;;;;;1.30;1.20;;;;;;;22.72;51.13;100109.25;4569603;27;20028;-67
2023/08/29 06:36:55;;;;;;;1.60;1.50;;;;;;;22.73;50.87;100116.63;4566772;27;20049;-69
2023/08/29 06:39:05;;;;;;;1.60;1.50;;;;;;;22.73;50.57;100111.72;4568828;27;20040;-66
2023/08/29 06:41:16;;;;;;;1.52;1.42;;;;;;;22.69;50.99;100101.41;4570384;27;20036;-67
2023/08/29 06:43:26;;;;;;;1.50;1.30;;;;;;;22.69;51.11;100099.34;4569515;27;20047;-67
2023/08/29 06:45:37;;;;;;;1.75;1.65;;;;;;;22.70;50.75;100101.00;4568838;27;20032;-67
2023/08/29 06:47:48;;;;;;;2.03;1.70;;;;;;;22.73;50.75;100108.84;4553854;28;20925;-67
2023/08/29 06:49:59;;;;;;;1.48;1.38;;;;;;;22.70;51.12;100101.00;4554054;28;20509;-67
2023/08/29 06:52:09;;;;;;;1.85;1.75;;;;;;;22.70;51.13;100097.28;4570084;27;20032;-67
2023/08/29 06:54:19;;;;;;;1.60;1.50;;;;;;;22.62;50.93;100086.91;4569550;27;20033;-67
2023/08/29 06:56:30;;;;;;;1.90;1.70;;;;;;;22.69;51.19;100099.34;4567892;27;20110;-67
2023/08/29 06:58:40;;;;;;;1.80;1.67;;;;;;;22.68;50.91;100091.94;4567632;27;20752;-67
2023/08/29 07:00:52;;;;;;;1.30;1.20;;;;;;;22.71;51.15;100102.66;4569589;27;20033;-67
2023/08/29 07:03:04;;;;;;;2.13;1.40;;;;;;;22.72;51.39;100110.03;4551791;28;20048;-67
2023/08/29 07:05:14;;;;;;;1.98;1.60;;;;;;;22.71;51.18;100107.56;4553978;27;20033;-67
2023/08/29 07:07:25;;;;;;;1.50;1.40;;;;;;;22.68;51.27;100114.09;4569019;27;20024;-68
2023/08/29 07:09:35;;;;;;;1.80;1.70;;;;;;;22.70;51.06;100111.69;4568109;27;20060;-67
2023/08/29 07:11:46;;;;;;;1.70;1.60;;;;;;;22.67;51.09;100113.31;4568178;27;20052;-67
2023/08/29 07:13:56;;;;;;;1.60;1.40;;;;;;;22.71;51.18;100116.19;4549588;28;20055;-67
2023/08/29 07:16:07;;;;;;;1.83;1.50;;;;;;;22.70;51.08;100108.81;4570164;27;20035;-67
2023/08/29 07:18:17;;;;;;;2.10;1.80;;;;;;;22.68;51.45;100112.06;4568033;27;20024;-67
2023/08/29 07:20:27;;;;;;;1.77;1.67;;;;;;;22.69;51.20;100110.84;4568322;27;20668;-67
2023/08/29 07:22:41;;;;;;;1.60;1.40;;;;;;;22.68;51.66;100114.09;4568829;27;20040;-67
2023/08/29 07:24:51;;;;;;;1.70;1.60;;;;;;;22.66;51.56;100105.88;4566600;27;20033;-67
2023/08/29 07:27:04;;;;;;;1.85;1.70;;;;;;;22.66;51.90;100110.81;4569273;27;20023;-66
2023/08/29 07:29:14;;;;;;;1.50;1.40;;;;;;;22.71;52.01;100124.81;4569219;27;20036;-67
2023/08/29 07:31:25;;;;;;;2.13;1.70;;;;;;;22.69;52.02;100122.34;4569508;27;20045;-67
2023/08/29 07:33:36;;;;;;;1.58;1.48;;;;;;;22.67;51.50;100110.44;4569737;27;20071;-67
2023/08/29 07:35:48;;;;;;;1.83;1.40;;;;;;;22.70;51.63;100123.19;4560506;28;20038;-67
2023/08/29 07:37:58;;;;;;;1.50;1.40;;;;;;;22.70;51.34;100128.94;4555348;28;20144;-68
2023/08/29 07:40:10;;;;;;;1.52;1.42;;;;;;;22.70;51.35;100129.78;4559658;28;20043;-67
2023/08/29 07:42:21;;;;;;;1.50;1.40;;;;;;;22.70;51.63;100134.69;4549470;28;20040;-67
2023/08/29 07:44:31;;;;;;;1.88;1.40;;;;;;;22.68;51.70;100131.38;4568350;27;20828;-67
2023/08/29 07:46:42;;;;;;;1.40;1.30;;;;;;;22.69;51.50;100128.09;4549851;28;20781;-68
2023/08/29 07:48:53;;;;;;;1.70;1.60;;;;;;;22.66;51.84;100125.22;4567567;27;20032;-67
2023/08/29 07:51:03;;;;;;;1.70;1.45;;;;;;;22.68;51.71;100125.63;4568707;27;20036;-67
2023/08/29 07:53:14;;;;;;;1.83;1.55;;;;;;;22.66;51.63;100130.97;4567227;27;20111;-67
2023/08/29 07:55:24;;;;;;;1.50;1.40;;;;;;;22.69;51.63;100136.72;4559474;28;20041;-66
2023/08/29 07:57:35;;;;;;;1.63;1.52;;;;;;;22.70;51.89;100143.31;4567604;27;20048;-66
2023/08/29 07:59:45;;;;;;;2.00;1.80;;;;;;;22.68;50.91;100135.09;4567409;27;20047;-66
2023/08/29 08:01:55;;;;;;;2.13;1.92;;;;;;;22.67;50.92;100130.56;4567840;27;20036;-66
2023/08/29 08:04:06;;;;;;;2.10;1.90;;;;;;;22.72;50.54;100146.66;4567043;27;20099;-66
2023/08/29 08:06:16;;;;;;;2.10;1.90;;;;;;;22.73;50.73;100145.41;4549912;27;20067;-66
2023/08/29 08:08:27;;;;;;;2.10;1.90;;;;;;;22.67;50.68;100136.31;4566673;27;20373;-67
2023/08/29 08:10:37;;;;;;;2.10;1.90;;;;;;;22.73;50.71;100149.13;4566963;27;20029;-67
2023/08/29 08:12:49;;;;;;;1.98;1.70;;;;;;;22.74;50.89;100144.22;4568039;27;20463;-66
2023/08/29 08:15:00;;;;;;;2.30;2.10;;;;;;;22.74;50.91;100144.22;4567762;27;20025;-66
2023/08/29 08:17:10;;;;;;;2.10;1.90;;;;;;;22.73;50.94;100142.53;4549967;28;20041;-67
2023/08/29 08:19:20;;;;;;;2.10;1.90;;;;;;;22.74;50.61;100145.03;4566611;27;20115;-67
2023/08/29 08:21:31;;;;;;;2.08;1.85;;;;;;;22.75;50.85;100142.97;4569013;27;20106;-67
2023/08/29 08:23:41;;;;;;;1.98;1.77;;;;;;;22.74;50.84;100144.22;4548005;28;20107;-67
2023/08/29 08:25:52;;;;;;;1.92;1.83;;;;;;;22.74;50.40;100153.66;4567417;27;20082;-67
2023/08/29 08:28:02;;;;;;;1.70;1.60;;;;;;;22.73;50.46;100156.91;4571145;27;20446;-66
2023/08/29 08:30:14;;;;;;;2.55;2.00;;;;;;;22.71;50.71;100150.72;4569087;27;20032;-67
2023/08/29 08:32:24;;;;;;;1.80;1.70;;;;;;;22.73;50.22;100157.75;4551499;28;20571;-67
2023/08/29 08:34:34;;;;;;;1.70;1.60;;;;;;;22.73;50.29;100157.75;4567369;27;20036;-67
2023/08/29 08:36:45;;;;;;;1.70;1.60;;;;;;;22.71;50.46;100153.59;4554210;28;20037;-67
2023/08/29 08:38:55;;;;;;;1.60;1.50;;;;;;;22.71;50.57;100163.06;4568861;27;20037;-67
2023/08/29 08:41:06;;;;;;;1.83;1.73;;;;;;;22.73;50.04;100160.63;4558039;28;20394;-67
2023/08/29 08:43:17;;;;;;;1.83;1.63;;;;;;;22.74;50.77;100167.22;4565560;27;20044;-67
2023/08/29 08:45:28;;;;;;;1.98;1.77;;;;;;;22.73;50.45;100169.28;4567770;27;20880;-67
2023/08/29 08:47:39;;;;;;;2.13;1.90;;;;;;;22.71;50.17;100165.09;4567599;27;20034;-67
2023/08/29 08:49:50;;;;;;;2.05;1.85;;;;;;;22.69;51.05;100171.25;4567630;27;20043;-68
2023/08/29 08:52:03;;;;;;;1.70;1.60;;;;;;;22.71;50.32;100165.94;4555185;27;20043;-66
2023/08/29 08:54:15;;;;;;;1.90;1.70;;;;;;;22.71;50.77;100171.69;4558724;28;21248;-67
2023/08/29 08:56:27;;;;;;;2.10;1.90;;;;;;;22.72;50.64;100167.59;4567536;27;20071;-67
2023/08/29 08:58:38;;;;;;;2.35;1.88;;;;;;;22.72;51.34;100173.34;4566216;27;20032;-66
2023/08/29 09:00:48;;;;;;;1.60;1.50;;;;;;;22.69;51.22;100164.69;4568699;27;20040;-67
2023/08/29 09:02:59;;;;;;;1.52;1.40;;;;;;;22.71;51.41;100167.97;4568013;27;20025;-67
2023/08/29 09:05:09;;;;;;;1.60;1.50;;;;;;;22.70;51.23;100167.19;4567378;27;20048;-67
2023/08/29 09:07:19;;;;;;;1.60;1.50;;;;;;;22.70;51.03;100169.22;4566305;27;20575;-67
2023/08/29 09:09:30;;;;;;;1.40;1.30;;;;;;;22.71;51.01;100167.97;4567203;27;20027;-67
2023/08/29 09:11:43;;;;;;;1.38;1.27;;;;;;;22.69;50.92;100161.81;4567719;27;20032;-67
2023/08/29 09:13:53;;;;;;;1.67;1.48;;;;;;;22.69;51.10;100162.63;4568633;27;20072;-67
2023/08/29 09:16:04;;;;;;;1.67;1.50;;;;;;;22.72;50.94;100176.22;4560517;28;20116;-67
2023/08/29 09:18:23;;;;;;;1.55;1.45;;;;;;;22.68;51.05;100168.78;4551284;28;20032;-67
2023/08/29 09:20:33;;;;;;;1.60;1.50;;;;;;;22.69;50.77;100168.38;4566218;27;20036;-66
2023/08/29 09:22:45;;;;;;;1.60;1.50;;;;;;;22.70;50.62;100170.06;4547487;28;20069;-66
2023/08/29 09:25:02;;;;;;;1.90;1.33;;;;;;;22.70;51.17;100172.94;4567201;27;20116;-67
2023/08/29 09:27:13;;;;;;;1.38;1.27;;;;;;;22.70;51.05;100172.94;4567677;27;20032;-67
2023/08/29 09:29:24;;;;;;;1.65;1.40;;;;;;;22.67;51.38;100165.09;4567402;27;20039;-67
2023/08/29 09:31:34;;;;;;;1.60;1.50;;;;;;;22.70;51.17;100169.22;4567213;27;20040;-67
2023/08/29 09:33:47;;;;;;;1.33;1.23;;;;;;;22.72;51.12;100184.03;4567116;27;20377;-67
2023/08/29 09:36:00;;;;;;;1.42;1.30;;;;;;;22.71;51.43;100170.84;4567477;27;20037;-68
2023/08/29 09:38:12;;;;;;;1.40;1.30;;;;;;;22.72;50.79;100173.34;4567067;27;20076;-67
2023/08/29 09:40:23;;;;;;;1.27;1.13;;;;;;;22.71;50.74;100168.81;4557750;28;20129;-67
2023/08/29 09:42:33;;;;;;;1.30;1.20;;;;;;;22.66;50.15;100165.47;4566947;27;20119;-67
2023/08/29 09:44:44;;;;;;;1.15;1.05;;;;;;;22.69;50.67;100171.25;4567525;27;20024;-67
2023/08/29 09:46:55;;;;;;;2.22;1.30;;;;;;;22.65;50.72;100170.41;4566532;27;20625;-67
2023/08/29 09:49:05;;;;;;;1.33;1.23;;;;;;;22.68;51.23;100171.66;4535092;28;20059;-67
2023/08/29 09:51:15;;;;;;;1.25;1.15;;;;;;;22.70;52.10;100174.97;4572716;27;20101;-67
2023/08/29 09:53:29;;;;;;;1.83;1.42;;;;;;;22.71;52.38;100170.84;4569620;27;20047;-67
2023/08/29 09:55:46;;;;;;;1.45;1.30;;;;;;;22.69;51.32;100167.56;4559164;28;20028;-67
2023/08/29 09:57:58;;;;;;;1.35;1.20;;;;;;;22.67;51.07;100170.00;4561033;28;20164;-67
2023/08/29 10:00:12;;;;;;;1.20;1.10;;;;;;;22.68;51.09;100180.28;4570181;27;20029;-67
2023/08/29 10:02:24;;;;;;;2.13;1.20;;;;;;;22.70;50.98;100177.84;4570193;27;20044;-68
2023/08/29 10:04:38;;;;;;;1.20;1.10;;;;;;;22.67;50.61;100167.13;4569363;27;20041;-67
2023/08/29 10:06:51;;;;;;;1.40;1.10;;;;;;;22.69;50.95;100168.38;4560583;28;20037;-68
2023/08/29 10:09:02;;;;;;;1.25;1.10;;;;;;;22.66;50.55;100156.84;4569377;27;20032;-68
2023/08/29 10:11:13;;;;;;;1.45;1.20;;;;;;;22.71;50.34;100159.34;4569266;27;20595;-67